Time;durP1;ratioP1;P1;durP2;ratioP2;P2;SDS_P1;SDS_P2;PMS_P1;PMS_P2;Temp;Humidity;BMP_temperature;BMP_pressure;BME280_temperature;BME280_humidity;BME280_pressure;Samples;Min_cycle;Max_cycle;Signal;HPM_P1;HPM_P2
2022/09/23 00:01:06;;;;;;;1.88;1.40;;;;;;;8.34;71.81;96605.06;5094900;28;20040;-68
2022/09/23 00:03:33;;;;;;;1.83;1.40;;;;;;;8.28;71.75;96597.41;5094971;28;20048;-67
2022/09/23 00:06:02;;;;;;;3.35;1.55;;;;;;;8.23;71.96;96596.69;5095066;28;20082;-67
2022/09/23 00:08:30;;;;;;;1.40;1.30;;;;;;;8.17;71.89;96592.50;5094788;28;20052;-66
2022/09/23 00:11:04;;;;;;;6.47;1.50;;;;;;;8.13;71.40;96596.06;5094827;28;20048;-66
2022/09/23 00:13:31;;;;;;;2.80;1.70;;;;;;;8.07;71.51;96585.84;5094563;28;20052;-66
2022/09/23 00:16:02;;;;;;;1.77;1.52;;;;;;;8.05;71.26;96583.28;5094505;28;20052;-66
2022/09/23 00:18:30;;;;;;;2.88;1.40;;;;;;;7.98;71.32;96584.34;5094565;28;20131;-67
2022/09/23 00:20:57;;;;;;;1.75;1.65;;;;;;;7.93;71.41;96586.19;5094390;28;20125;-67
2022/09/23 00:23:24;;;;;;;2.03;1.52;;;;;;;7.80;71.33;96585.69;5094388;28;20135;-66
2022/09/23 00:25:57;;;;;;;2.30;2.10;;;;;;;7.67;71.72;96586.00;5094397;28;20469;-66
2022/09/23 00:28:26;;;;;;;3.15;1.80;;;;;;;7.68;71.85;96586.84;5094295;28;20123;-66
2022/09/23 00:30:53;;;;;;;2.03;1.60;;;;;;;7.64;71.80;96580.84;5093859;28;20044;-66
2022/09/23 00:33:20;;;;;;;1.52;1.42;;;;;;;7.56;72.04;96575.84;5094121;28;20405;-67
2022/09/23 00:35:47;;;;;;;1.65;1.55;;;;;;;7.53;71.67;96582.88;5094219;28;20459;-67
2022/09/23 00:38:14;;;;;;;1.70;1.60;;;;;;;7.42;71.76;96575.34;5094305;28;20083;-67
2022/09/23 00:40:44;;;;;;;2.30;1.50;;;;;;;7.48;71.79;96582.13;5094265;28;20436;-67
2022/09/23 00:43:12;;;;;;;1.80;1.50;;;;;;;7.37;71.93;96580.66;5094087;28;20079;-67
2022/09/23 00:45:46;;;;;;;1.70;1.60;;;;;;;7.26;71.35;96586.13;5094332;28;20143;-66
2022/09/23 00:48:17;;;;;;;1.95;1.75;;;;;;;7.18;71.94;96581.13;5094365;28;20048;-67
2022/09/23 00:50:48;;;;;;;1.73;1.63;;;;;;;7.12;72.15;96581.25;5094019;28;20050;-67
2022/09/23 00:53:21;;;;;;;1.63;1.52;;;;;;;7.06;72.54;96582.25;5093886;28;20055;-66
2022/09/23 00:55:51;;;;;;;4.32;1.83;;;;;;;7.04;72.29;96577.97;5093927;28;20052;-66
2022/09/23 00:58:23;;;;;;;2.58;1.85;;;;;;;7.02;72.55;96578.03;5093860;28;20478;-67
2022/09/23 01:00:52;;;;;;;1.70;1.60;;;;;;;6.95;72.34;96577.28;5093740;28;20497;-66
2022/09/23 01:03:21;;;;;;;3.10;1.55;;;;;;;6.93;72.34;96576.47;5093858;28;20402;-66
2022/09/23 01:05:49;;;;;;;1.60;1.50;;;;;;;6.89;72.06;96572.22;5093694;28;20044;-67
2022/09/23 01:08:16;;;;;;;1.45;1.35;;;;;;;6.76;72.45;96576.84;5093793;28;20101;-67
2022/09/23 01:10:51;;;;;;;1.73;1.63;;;;;;;6.78;72.31;96576.81;5093693;28;20072;-67
2022/09/23 01:13:27;;;;;;;1.95;1.67;;;;;;;6.72;72.49;96574.34;5093508;28;20105;-67
2022/09/23 01:16:05;;;;;;;4.35;1.58;;;;;;;6.66;72.58;96567.56;5093543;28;20105;-67
2022/09/23 01:18:40;;;;;;;3.05;1.98;;;;;;;6.63;72.36;96568.47;5093587;28;20501;-67
2022/09/23 01:21:21;;;;;;;4.38;1.77;;;;;;;6.54;72.82;96569.50;5093679;28;20050;-64
2022/09/23 01:24:29;;;;;;;1.85;1.75;;;;;;;6.51;72.89;96572.19;5093590;28;20067;-65
2022/09/23 01:27:07;;;;;;;1.52;1.42;;;;;;;6.54;72.78;96569.50;5093300;28;20490;-65
2022/09/23 01:30:06;;;;;;;1.98;1.70;;;;;;;6.44;73.10;96565.41;5093634;28;20402;-66
2022/09/23 01:32:46;;;;;;;1.70;1.60;;;;;;;6.44;72.99;96568.00;5090315;28;20040;-68
2022/09/23 01:35:23;;;;;;;1.65;1.55;;;;;;;6.41;73.36;96570.69;5093448;28;20390;-67
2022/09/23 01:37:56;;;;;;;1.60;1.50;;;;;;;6.43;73.48;96563.69;5093316;28;20444;-66
2022/09/23 01:40:29;;;;;;;1.75;1.60;;;;;;;6.35;73.58;96568.22;5093255;28;20127;-68
2022/09/23 01:43:02;;;;;;;1.80;1.70;;;;;;;6.36;73.94;96570.78;5092657;28;20044;-66
2022/09/23 01:45:34;;;;;;;1.65;1.55;;;;;;;6.39;74.14;96564.66;5093211;28;20048;-66
2022/09/23 01:48:12;;;;;;;1.77;1.67;;;;;;;6.40;73.89;96559.44;5093095;28;20097;-65
2022/09/23 01:50:56;;;;;;;1.58;1.48;;;;;;;6.42;74.31;96562.81;5093251;28;20101;-68
2022/09/23 01:53:30;;;;;;;2.03;1.83;;;;;;;6.45;74.31;96560.16;5093201;28;20079;-66
2022/09/23 01:56:02;;;;;;;1.98;1.80;;;;;;;6.49;74.34;96558.38;5093046;28;20059;-67
2022/09/23 01:58:37;;;;;;;1.95;1.77;;;;;;;6.53;74.47;96562.59;5093073;28;20048;-65
2022/09/23 02:01:07;;;;;;;1.70;1.60;;;;;;;6.57;74.93;96566.00;5093086;28;20050;-66
2022/09/23 02:03:42;;;;;;;1.50;1.40;;;;;;;6.55;74.70;96568.63;5093071;28;20055;-65
2022/09/23 02:06:15;;;;;;;2.40;1.83;;;;;;;6.55;74.78;96566.03;5093108;28;20105;-67
2022/09/23 02:08:47;;;;;;;1.55;1.45;;;;;;;6.54;74.88;96561.72;5092868;28;20523;-66
2022/09/23 02:11:17;;;;;;;1.70;1.60;;;;;;;6.51;74.69;96572.19;5093249;28;20492;-66
2022/09/23 02:13:49;;;;;;;1.77;1.67;;;;;;;6.48;74.80;96568.78;5092667;28;20051;-66
2022/09/23 02:16:25;;;;;;;2.00;1.80;;;;;;;6.49;74.42;96570.50;5092911;28;20059;-67
2022/09/23 02:18:57;;;;;;;1.73;1.63;;;;;;;6.48;74.57;96572.25;5092891;28;20574;-65
2022/09/23 02:21:34;;;;;;;1.83;1.70;;;;;;;6.48;74.40;96561.88;5092902;28;20044;-67
2022/09/23 02:24:09;;;;;;;1.90;1.70;;;;;;;6.45;74.50;96562.75;5092810;28;20461;-67
2022/09/23 02:26:41;;;;;;;2.08;1.85;;;;;;;6.42;74.24;96562.00;5092845;28;20080;-66
2022/09/23 02:29:18;;;;;;;2.03;1.83;;;;;;;6.30;74.77;96565.69;5092780;28;20054;-65
2022/09/23 02:31:55;;;;;;;2.00;1.80;;;;;;;6.14;75.66;96559.97;5092814;28;20048;-68
2022/09/23 02:34:34;;;;;;;3.28;1.90;;;;;;;6.17;75.63;96563.34;5092672;28;20052;-66
2022/09/23 02:37:08;;;;;;;1.92;1.73;;;;;;;6.17;75.77;96562.50;5092719;28;20054;-68
2022/09/23 02:39:41;;;;;;;2.05;1.85;;;;;;;6.23;75.67;96561.53;5092674;28;20040;-67
2022/09/23 02:42:15;;;;;;;2.63;2.03;;;;;;;6.25;75.78;96564.94;5092694;28;20044;-66
2022/09/23 02:44:42;;;;;;;2.20;2.00;;;;;;;6.25;75.82;96563.19;5092605;28;20052;-66
2022/09/23 02:47:09;;;;;;;2.30;1.77;;;;;;;6.23;76.11;96557.16;5092616;28;20135;-66
2022/09/23 02:49:38;;;;;;;4.13;2.22;;;;;;;6.24;76.04;96558.03;5092629;28;20147;-68
2022/09/23 02:52:06;;;;;;;2.05;1.80;;;;;;;6.30;76.28;96563.09;5092456;28;20123;-67
2022/09/23 02:54:34;;;;;;;1.77;1.67;;;;;;;6.31;75.61;96559.59;5096093;28;20051;-67
2022/09/23 02:57:04;;;;;;;2.22;1.73;;;;;;;6.32;75.31;96564.78;5096398;28;20045;-66
2022/09/23 02:59:33;;;;;;;1.85;1.75;;;;;;;6.26;75.53;96559.69;5096167;28;20052;-67
2022/09/23 03:02:26;;;;;;;2.30;2.10;;;;;;;6.29;75.52;96559.63;5096224;28;20044;-68
2022/09/23 03:05:05;;;;;;;2.10;1.88;;;;;;;6.26;75.38;96569.25;5093994;28;20059;-67
2022/09/23 03:07:44;;;;;;;2.53;2.13;;;;;;;6.21;75.45;96564.16;5095986;28;20048;-67
2022/09/23 03:10:16;;;;;;;2.25;1.90;;;;;;;6.19;75.19;96563.31;5095967;28;20044;-67
2022/09/23 03:12:52;;;;;;;2.28;1.85;;;;;;;6.25;75.71;96560.59;5095852;28;20097;-65
2022/09/23 03:15:27;;;;;;;2.90;1.95;;;;;;;6.26;75.16;96567.50;5095499;28;20401;-67
2022/09/23 03:18:03;;;;;;;1.98;1.77;;;;;;;6.24;74.90;96571.00;5095881;28;20084;-68
2022/09/23 03:20:37;;;;;;;2.28;2.00;;;;;;;6.24;74.87;96574.47;5095953;28;20534;-67
2022/09/23 03:23:09;;;;;;;2.15;1.90;;;;;;;6.18;74.70;96570.25;5095694;28;20127;-67
2022/09/23 03:25:43;;;;;;;1.95;1.75;;;;;;;6.22;74.76;96564.97;5095694;28;20059;-67
2022/09/23 03:28:13;;;;;;;1.88;1.77;;;;;;;6.22;74.59;96567.59;5095608;28;20048;-66
2022/09/23 03:30:42;;;;;;;2.10;1.90;;;;;;;6.18;73.92;96569.41;5095504;28;20569;-67
2022/09/23 03:33:15;;;;;;;6.55;1.73;;;;;;;6.14;74.19;96581.59;5095474;28;20122;-68
2022/09/23 03:38:44;;;;;;;4.00;2.97;;;;;;;6.01;74.64;96575.75;5060912;28;20062;-66
2022/09/23 03:41:15;;;;;;;2.35;2.03;;;;;;;6.01;74.92;96573.16;5095353;28;20543;-67
2022/09/23 03:43:44;;;;;;;4.45;1.95;;;;;;;5.96;75.29;96577.56;5095233;28;20047;-66
2022/09/23 03:46:17;;;;;;;2.75;2.20;;;;;;;5.93;76.06;96580.25;5095408;28;20048;-66
2022/09/23 03:48:44;;;;;;;2.22;2.00;;;;;;;5.94;75.76;96576.75;5095399;28;20490;-66
2022/09/23 03:51:22;;;;;;;2.00;1.80;;;;;;;5.95;75.23;96578.47;5095102;28;20046;-66
2022/09/23 03:53:49;;;;;;;2.10;1.50;;;;;;;5.97;74.49;96573.25;5094856;28;20090;-68
2022/09/23 03:56:17;;;;;;;3.55;2.25;;;;;;;5.97;74.49;96581.91;5094906;28;20048;-66
2022/09/23 03:58:45;;;;;;;6.40;4.30;;;;;;;5.97;74.99;96581.03;5093693;28;20444;-65
2022/09/23 04:01:13;;;;;;;3.80;3.13;;;;;;;5.98;74.89;96581.00;5095197;28;20044;-66
2022/09/23 04:03:41;;;;;;;4.18;3.28;;;;;;;5.97;74.96;96581.91;5094541;28;20122;-65
2022/09/23 04:06:08;;;;;;;3.22;2.67;;;;;;;5.99;75.10;96582.69;5094231;28;20044;-66
2022/09/23 04:08:37;;;;;;;4.32;3.17;;;;;;;5.99;75.01;96582.69;5095123;28;20048;-67
2022/09/23 04:11:05;;;;;;;3.88;3.42;;;;;;;6.00;74.85;96578.38;5094784;28;20052;-66
2022/09/23 04:13:32;;;;;;;4.18;3.63;;;;;;;6.02;74.51;96582.66;5094593;28;20048;-67
2022/09/23 04:15:59;;;;;;;3.42;2.95;;;;;;;5.99;74.42;96587.06;5094887;28;20040;-68
2022/09/23 04:18:26;;;;;;;6.57;5.20;;;;;;;6.00;74.51;96592.22;5094532;28;20059;-65
2022/09/23 04:20:58;;;;;;;5.68;3.90;;;;;;;5.99;74.72;96587.06;5094749;28;20090;-65
2022/09/23 04:23:26;;;;;;;3.25;2.85;;;;;;;6.00;75.54;96596.56;5094584;28;20083;-66
2022/09/23 04:25:55;;;;;;;3.45;3.13;;;;;;;6.07;75.88;96605.97;5094349;28;20520;-68
2022/09/23 04:28:22;;;;;;;3.20;2.65;;;;;;;6.10;75.88;96602.44;5094313;28;20048;-68
2022/09/23 04:30:49;;;;;;;2.90;2.70;;;;;;;6.13;75.81;96595.47;5094470;28;20093;-66
2022/09/23 04:33:17;;;;;;;3.40;3.08;;;;;;;6.20;75.82;96601.38;5094314;28;20040;-66
2022/09/23 04:35:44;;;;;;;5.30;2.60;;;;;;;6.23;75.72;96606.53;5094223;28;20052;-67
2022/09/23 04:38:12;;;;;;;5.55;2.58;;;;;;;6.21;75.37;96600.53;5094057;28;20127;-66
2022/09/23 04:40:40;;;;;;;4.18;2.10;;;;;;;6.28;75.52;96604.69;5094179;28;20111;-66
2022/09/23 04:43:09;;;;;;;7.40;2.70;;;;;;;6.34;74.93;96605.44;5094285;28;20097;-68
2022/09/23 04:45:36;;;;;;;3.78;2.22;;;;;;;6.34;74.84;96602.84;5094178;28;20044;-66
2022/09/23 04:48:03;;;;;;;2.70;2.50;;;;;;;6.35;74.91;96620.19;5094086;28;20047;-66
2022/09/23 04:50:33;;;;;;;3.42;2.50;;;;;;;6.39;75.20;96609.69;5093914;28;20098;-67
2022/09/23 04:53:00;;;;;;;2.53;2.30;;;;;;;6.50;75.10;96616.41;5093908;28;20076;-68
2022/09/23 04:55:28;;;;;;;3.03;2.40;;;;;;;6.49;74.70;96620.75;5094065;28;20105;-67
2022/09/23 04:57:55;;;;;;;2.80;2.38;;;;;;;6.54;74.75;96624.09;5093914;28;20097;-68
2022/09/23 05:00:25;;;;;;;2.97;2.60;;;;;;;6.66;74.27;96615.22;5093865;28;20048;-66
2022/09/23 05:02:52;;;;;;;5.83;2.43;;;;;;;6.75;74.08;96616.75;5093824;28;20043;-66
2022/09/23 05:05:22;;;;;;;5.90;2.17;;;;;;;6.87;73.88;96618.25;5093772;28;20280;-67
2022/09/23 05:07:49;;;;;;;3.47;1.98;;;;;;;7.01;73.97;96617.91;5093662;28;20127;-66
2022/09/23 05:10:17;;;;;;;2.47;2.20;;;;;;;7.70;72.75;96621.50;5093704;28;20047;-68
2022/09/23 05:12:44;;;;;;;2.67;2.47;;;;;;;8.19;70.53;96618.53;5093610;28;20456;-66
2022/09/23 05:15:14;;;;;;;9.95;2.28;;;;;;;8.34;69.15;96615.47;5093425;28;20052;-67
2022/09/23 05:17:44;;;;;;;2.30;2.10;;;;;;;8.92;67.63;96631.28;5093785;28;20059;-67
2022/09/23 05:20:11;;;;;;;5.95;1.67;;;;;;;10.26;65.04;96623.53;5093649;28;20072;-66
2022/09/23 05:22:38;;;;;;;4.50;1.60;;;;;;;11.82;60.35;96621.09;5093660;28;20044;-67
2022/09/23 05:25:06;;;;;;;1.75;1.65;;;;;;;13.15;56.11;96615.31;5093426;28;20214;-67
2022/09/23 05:27:33;;;;;;;1.55;1.45;;;;;;;14.50;52.84;96622.75;5093621;28;20051;-67
2022/09/23 05:30:00;;;;;;;2.42;1.70;;;;;;;15.28;49.31;96622.13;5093355;28;20097;-67
2022/09/23 05:32:28;;;;;;;2.25;1.92;;;;;;;14.98;49.54;96619.38;5093481;28;20048;-66
2022/09/23 05:34:57;;;;;;;2.85;1.48;;;;;;;15.28;50.19;96621.25;5093265;28;20048;-67
2022/09/23 05:37:24;;;;;;;2.75;1.80;;;;;;;16.40;47.72;96628.06;5093431;28;20047;-66
2022/09/23 05:39:51;;;;;;;4.40;1.60;;;;;;;17.28;45.37;96623.59;5093382;28;20054;-67
2022/09/23 05:42:20;;;;;;;1.63;1.40;;;;;;;17.62;44.25;96625.00;5093278;28;20056;-67
2022/09/23 05:44:47;;;;;;;1.60;1.50;;;;;;;18.40;43.26;96619.91;5093422;28;20043;-67
2022/09/23 05:47:14;;;;;;;2.78;1.38;;;;;;;19.51;40.91;96623.66;5093275;28;20044;-67
2022/09/23 05:49:42;;;;;;;1.63;1.30;;;;;;;20.50;39.04;96621.72;5093403;28;20048;-66
2022/09/23 05:52:10;;;;;;;2.85;1.40;;;;;;;21.28;36.95;96623.69;5093130;28;20048;-67
2022/09/23 05:54:37;;;;;;;1.20;1.10;;;;;;;22.03;36.70;96617.66;5092935;28;20059;-67
2022/09/23 05:57:05;;;;;;;2.85;1.58;;;;;;;22.82;34.28;96613.66;5093036;28;20105;-67
2022/09/23 05:59:32;;;;;;;1.30;1.20;;;;;;;23.60;33.58;96619.41;5093013;28;20551;-67
2022/09/23 06:02:00;;;;;;;3.28;1.38;;;;;;;24.07;32.21;96616.03;5093131;28;20048;-67
2022/09/23 06:04:27;;;;;;;1.50;1.40;;;;;;;24.41;32.57;96608.56;5093041;28;20048;-66
2022/09/23 06:06:54;;;;;;;1.98;1.38;;;;;;;24.82;31.88;96616.31;5092998;28;20048;-66
2022/09/23 06:09:23;;;;;;;1.58;1.42;;;;;;;25.35;30.80;96606.78;5093112;28;20047;-67
2022/09/23 06:11:51;;;;;;;3.53;1.73;;;;;;;25.82;30.65;96612.13;5092868;28;20044;-67
2022/09/23 06:14:18;;;;;;;1.70;1.20;;;;;;;25.92;30.13;96614.75;5094559;28;20052;-67
2022/09/23 06:16:45;;;;;;;2.65;1.40;;;;;;;26.05;30.05;96615.19;5092954;28;20052;-67
2022/09/23 06:19:12;;;;;;;1.52;1.40;;;;;;;26.30;29.22;96607.38;5092913;28;20097;-66
2022/09/23 06:21:40;;;;;;;1.50;1.40;;;;;;;26.45;28.37;96609.47;5092968;28;20080;-67
2022/09/23 06:24:10;;;;;;;1.58;1.48;;;;;;;26.27;28.13;96610.34;5092932;28;20131;-67
2022/09/23 06:26:39;;;;;;;3.13;1.40;;;;;;;26.34;28.52;96605.22;5092978;28;20131;-67
2022/09/23 06:29:10;;;;;;;2.05;1.58;;;;;;;26.22;28.00;96607.28;5096025;28;20056;-67
2022/09/23 06:31:37;;;;;;;3.03;1.58;;;;;;;26.28;28.00;96606.69;5096723;28;20083;-66
2022/09/23 06:34:05;;;;;;;2.50;1.73;;;;;;;26.08;28.70;96604.19;5096664;28;20070;-66
2022/09/23 06:36:32;;;;;;;2.72;1.20;;;;;;;26.20;28.32;96606.59;5096467;28;20098;-67
2022/09/23 06:38:59;;;;;;;3.35;1.35;;;;;;;26.20;28.30;96599.41;5096814;28;20131;-67
2022/09/23 06:41:26;;;;;;;1.30;1.20;;;;;;;26.21;28.92;96609.13;5096469;28;20074;-67
2022/09/23 06:43:55;;;;;;;3.55;1.30;;;;;;;26.03;28.60;96605.66;5096571;28;20072;-66
2022/09/23 06:46:22;;;;;;;1.40;1.30;;;;;;;25.94;29.27;96607.38;5096414;28;20054;-67
2022/09/23 06:48:49;;;;;;;1.17;1.10;;;;;;;25.94;29.03;96602.88;5096442;28;20052;-67
2022/09/23 06:51:19;;;;;;;3.22;1.50;;;;;;;25.93;28.43;96601.19;5096429;28;20551;-67
2022/09/23 06:53:47;;;;;;;1.60;1.50;;;;;;;25.81;28.93;96599.75;5096260;28;20496;-66
2022/09/23 06:56:16;;;;;;;3.67;1.23;;;;;;;25.53;29.28;96608.66;5096153;28;20056;-67
2022/09/23 06:58:43;;;;;;;1.30;1.20;;;;;;;25.41;30.29;96602.69;5096293;28;20444;-66
2022/09/23 07:01:14;;;;;;;3.22;1.45;;;;;;;25.53;29.24;96606.00;5096385;28;20546;-67
2022/09/23 07:03:42;;;;;;;1.88;1.10;;;;;;;25.21;28.70;96599.25;5096051;28;20050;-67
2022/09/23 07:06:09;;;;;;;1.17;1.08;;;;;;;24.43;28.09;96622.59;5096154;28;20441;-66
2022/09/23 07:08:37;;;;;;;1.40;1.30;;;;;;;23.87;29.15;96615.16;5095922;28;20113;-66
2022/09/23 07:11:05;;;;;;;1.48;1.20;;;;;;;23.25;29.75;96620.69;5095810;28;20095;-66
2022/09/23 07:13:33;;;;;;;1.70;1.40;;;;;;;22.80;31.36;96620.97;5095917;28;20047;-66
2022/09/23 07:16:01;;;;;;;2.67;1.67;;;;;;;22.71;31.69;96616.41;5095673;28;20056;-66
2022/09/23 07:18:35;;;;;;;1.20;1.10;;;;;;;22.29;29.85;96626.13;5095906;28;20059;-66
2022/09/23 07:21:07;;;;;;;1.77;1.30;;;;;;;22.29;30.36;96635.91;5095748;28;20083;-66
2022/09/23 07:23:36;;;;;;;1.42;1.00;;;;;;;21.39;31.33;96633.44;5095634;28;20044;-66
2022/09/23 07:26:04;;;;;;;2.08;1.30;;;;;;;21.16;32.28;96636.16;5095605;28;20161;-67
2022/09/23 07:28:31;;;;;;;1.08;1.08;;;;;;;20.91;33.80;96640.75;5095721;28;20052;-66
2022/09/23 07:31:05;;;;;;;1.77;1.50;;;;;;;20.71;35.59;96635.16;5095644;28;20463;-66
2022/09/23 07:33:34;;;;;;;1.75;1.60;;;;;;;20.64;35.88;96629.47;5095528;28;20092;-66
2022/09/23 07:36:06;;;;;;;2.08;1.30;;;;;;;20.42;33.68;96643.56;5095411;28;20059;-66
2022/09/23 07:38:33;;;;;;;2.55;1.30;;;;;;;19.80;34.96;96644.53;5094924;28;20559;-66
2022/09/23 07:41:05;;;;;;;1.80;1.70;;;;;;;18.80;37.22;96646.28;5094687;28;20083;-66
2022/09/23 07:43:33;;;;;;;4.25;1.52;;;;;;;18.21;39.21;96638.84;5095323;28;20074;-66
2022/09/23 07:46:02;;;;;;;1.90;1.52;;;;;;;17.66;40.72;96651.16;5095339;28;20518;-66
2022/09/23 07:48:30;;;;;;;2.00;1.58;;;;;;;17.19;41.46;96648.00;5095116;28;20051;-66
2022/09/23 07:50:59;;;;;;;1.90;1.70;;;;;;;17.30;42.29;96645.50;5095242;28;20040;-66
2022/09/23 07:53:27;;;;;;;1.63;1.52;;;;;;;17.06;41.38;96650.50;5095326;28;20474;-67
2022/09/23 07:55:56;;;;;;;1.52;1.35;;;;;;;17.18;42.49;96652.41;5095016;28;20121;-67
2022/09/23 07:58:24;;;;;;;1.90;1.77;;;;;;;17.39;43.22;96648.50;5095023;28;20048;-66
2022/09/23 08:00:52;;;;;;;1.70;1.60;;;;;;;17.98;40.82;96643.84;5094941;28;20044;-66
2022/09/23 08:03:20;;;;;;;1.77;1.67;;;;;;;18.53;38.80;96633.13;5094912;28;20466;-67
2022/09/23 08:05:48;;;;;;;1.52;1.42;;;;;;;18.38;38.45;96635.91;5094827;28;20044;-66
2022/09/23 08:08:16;;;;;;;1.73;1.63;;;;;;;18.09;39.63;96629.91;5095054;28;20044;-67
2022/09/23 08:10:44;;;;;;;2.38;1.75;;;;;;;18.06;39.98;96633.59;5094823;28;20044;-67
2022/09/23 08:13:11;;;;;;;2.45;1.52;;;;;;;17.88;41.79;96633.03;5094815;28;20044;-67
2022/09/23 08:15:42;;;;;;;2.17;1.70;;;;;;;17.79;41.25;96637.16;5094399;28;20056;-66
2022/09/23 08:18:09;;;;;;;3.17;1.88;;;;;;;18.15;40.93;96638.31;5094566;28;20063;-67
2022/09/23 08:20:46;;;;;;;2.42;2.15;;;;;;;18.48;39.61;96633.47;5094671;28;20105;-66
2022/09/23 08:23:15;;;;;;;2.25;1.88;;;;;;;17.91;40.20;96635.50;5094566;28;20127;-66
2022/09/23 08:25:45;;;;;;;1.80;1.70;;;;;;;17.85;42.01;96636.72;5094418;28;20409;-66
2022/09/23 08:28:14;;;;;;;2.30;1.90;;;;;;;18.14;41.83;96628.69;5094508;28;20044;-66
2022/09/23 08:30:42;;;;;;;2.15;1.95;;;;;;;18.71;42.91;96630.16;5094411;28;20047;-66
2022/09/23 08:33:11;;;;;;;2.33;2.13;;;;;;;18.98;39.74;96621.22;5094335;28;20051;-66
2022/09/23 08:35:38;;;;;;;2.40;2.20;;;;;;;19.28;38.85;96630.63;5094604;28;20056;-67
2022/09/23 08:38:05;;;;;;;3.25;2.20;;;;;;;19.36;38.67;96625.63;5094449;28;20044;-67
2022/09/23 08:40:37;;;;;;;2.30;2.10;;;;;;;18.90;39.53;96627.09;5094165;28;20044;-66
2022/09/23 08:43:08;;;;;;;2.85;1.52;;;;;;;18.76;40.87;96618.31;5094238;28;20056;-66
2022/09/23 08:45:38;;;;;;;1.65;1.55;;;;;;;18.66;40.51;96618.09;5094179;28;20048;-66
2022/09/23 08:48:12;;;;;;;2.78;1.73;;;;;;;18.62;40.87;96624.56;5094042;28;20066;-66
2022/09/23 08:50:42;;;;;;;5.00;1.75;;;;;;;18.35;40.57;96620.22;5093675;28;20446;-67
2022/09/23 08:53:18;;;;;;;2.57;2.20;;;;;;;17.94;43.06;96625.53;5094084;28;20508;-66
2022/09/23 08:55:49;;;;;;;2.45;1.23;;;;;;;17.42;41.31;96633.31;5093742;28;20047;-65
2022/09/23 08:58:42;;;;;;;1.73;1.63;;;;;;;17.10;44.13;96638.00;5093851;28;20486;-67
2022/09/23 09:01:18;;;;;;;2.53;2.08;;;;;;;16.86;46.27;96644.66;5093827;28;20055;-67
2022/09/23 09:03:49;;;;;;;1.83;1.73;;;;;;;16.60;48.50;96643.63;5093983;28;20094;-66
2022/09/23 09:06:21;;;;;;;2.17;1.92;;;;;;;16.29;49.52;96644.53;5093681;28;20048;-66
2022/09/23 09:08:57;;;;;;;2.15;1.95;;;;;;;16.14;47.78;96642.81;5093975;28;20048;-66
2022/09/23 09:11:30;;;;;;;2.47;1.83;;;;;;;16.01;48.78;96653.22;5093712;28;20131;-65
2022/09/23 09:14:06;;;;;;;2.03;1.90;;;;;;;15.87;48.40;96654.84;5093648;28;20050;-66
2022/09/23 09:16:47;;;;;;;2.15;1.90;;;;;;;15.82;49.74;96646.38;5093639;28;20052;-66
2022/09/23 09:19:17;;;;;;;;;;;;;;;15.69;47.99;96648.88;5094243;28;20044;-67
2022/09/23 09:21:47;;;;;;;2.75;1.83;;;;;;;15.58;49.19;96645.97;5093461;28;19920;-64
2022/09/23 09:24:19;;;;;;;2.58;2.08;;;;;;;15.56;49.79;96647.88;5093469;28;20044;-66
2022/09/23 09:26:46;;;;;;;3.53;1.85;;;;;;;15.56;50.09;96646.06;5093541;28;20044;-67
2022/09/23 09:29:20;;;;;;;3.95;2.00;;;;;;;15.55;51.18;96644.38;5093562;28;20044;-66
2022/09/23 09:31:49;;;;;;;3.33;2.22;;;;;;;15.48;52.09;96646.50;5093400;28;20044;-66
2022/09/23 09:34:27;;;;;;;2.78;2.22;;;;;;;15.47;53.26;96649.25;5093506;28;20043;-67
2022/09/23 09:37:05;;;;;;;4.13;2.30;;;;;;;15.40;53.05;96646.06;5093295;28;20091;-67
2022/09/23 09:39:34;;;;;;;2.85;2.33;;;;;;;15.43;53.66;96642.41;5093210;28;20044;-67
2022/09/23 09:42:03;;;;;;;4.65;2.03;;;;;;;15.48;51.74;96657.06;5093265;28;20052;-67
2022/09/23 09:44:39;;;;;;;3.03;2.00;;;;;;;15.81;51.52;96667.56;5093338;28;20054;-67
2022/09/23 09:47:19;;;;;;;2.28;1.40;;;;;;;16.17;46.58;96669.88;5093169;28;20040;-66
2022/09/23 09:49:54;;;;;;;1.63;1.52;;;;;;;16.43;47.16;96671.91;5093355;28;20567;-67
2022/09/23 09:52:28;;;;;;;1.55;1.30;;;;;;;16.46;43.04;96676.16;5093140;28;20062;-67
2022/09/23 09:54:58;;;;;;;1.40;1.30;;;;;;;16.45;46.71;96672.66;5093174;28;20543;-66
2022/09/23 09:57:31;;;;;;;1.50;1.40;;;;;;;16.42;47.24;96664.94;5092979;28;20131;-66
2022/09/23 10:00:18;;;;;;;2.72;1.30;;;;;;;16.38;45.09;96663.41;5093251;28;20077;-66
2022/09/23 10:02:48;;;;;;;1.02;1.00;;;;;;;16.48;44.36;96664.56;5094233;28;20039;-67
2022/09/23 10:05:26;;;;;;;2.13;1.30;;;;;;;16.77;44.86;96650.53;5097422;28;20044;-67
2022/09/23 10:07:54;;;;;;;2.47;1.60;;;;;;;17.11;44.36;96645.81;5097220;28;20502;-67
2022/09/23 10:10:24;;;;;;;1.98;1.65;;;;;;;17.37;41.77;96650.41;5097173;28;20058;-67
2022/09/23 10:12:52;;;;;;;5.97;4.90;;;;;;;17.74;43.08;96653.31;5097050;28;20499;-66
2022/09/23 10:15:32;;;;;;;2.50;1.40;;;;;;;18.10;40.67;96650.13;5096725;28;20052;-67
2022/09/23 10:18:00;;;;;;;1.27;1.15;;;;;;;18.17;39.19;96646.13;5097029;28;20448;-67
2022/09/23 10:20:37;;;;;;;1.60;1.20;;;;;;;18.07;38.02;96653.81;5097202;28;20051;-67
2022/09/23 10:23:12;;;;;;;1.50;1.40;;;;;;;17.87;42.76;96665.72;5097072;28;20048;-67
2022/09/23 10:25:41;;;;;;;1.30;1.20;;;;;;;17.16;42.38;96659.59;5096994;28;20048;-67
2022/09/23 10:28:31;;;;;;;1.45;1.10;;;;;;;16.23;42.42;96666.03;5096954;28;20084;-66
2022/09/23 10:31:07;;;;;;;1.10;1.10;;;;;;;15.52;43.74;96660.34;5096819;28;20044;-66
2022/09/23 10:33:39;;;;;;;1.35;1.25;;;;;;;14.93;45.39;96668.84;5096856;28;20048;-67
2022/09/23 10:36:10;;;;;;;1.70;1.60;;;;;;;14.64;47.20;96664.16;5096560;28;20051;-65
2022/09/23 10:38:38;;;;;;;1.52;1.42;;;;;;;14.43;48.68;96664.34;5096688;28;20132;-66
2022/09/23 10:47:02;;;;;;;1.98;1.58;;;;;;;14.18;54.85;96646.34;5096547;28;20055;-66
2022/09/23 10:49:52;;;;;;;1.55;1.45;;;;;;;14.36;54.30;96653.28;5096387;28;20052;-67
2022/09/23 10:52:38;;;;;;;1.90;1.77;;;;;;;14.58;55.67;96646.03;5094607;28;20058;-65
2022/09/23 10:55:16;;;;;;;1.52;1.30;;;;;;;14.92;53.07;96649.53;5096280;28;20504;-67
2022/09/23 10:58:05;;;;;;;1.60;1.50;;;;;;;15.25;50.83;96650.41;5095720;28;20048;-66
2022/09/23 11:00:41;;;;;;;1.60;1.50;;;;;;;15.53;49.40;96648.88;5096120;28;20464;-66
2022/09/23 11:03:37;;;;;;;1.52;1.42;;;;;;;15.65;48.44;96634.13;5096233;28;20097;-67
2022/09/23 11:06:14;;;;;;;1.35;1.25;;;;;;;15.99;46.68;96631.38;5096119;28;20078;-67
2022/09/23 11:08:57;;;;;;;1.45;1.35;;;;;;;16.13;46.06;96630.56;5096015;28;20119;-66
2022/09/23 11:11:38;;;;;;;2.13;1.40;;;;;;;16.09;47.15;96629.03;5095859;28;20474;-67
2022/09/23 11:14:18;;;;;;;1.27;1.10;;;;;;;16.15;46.76;96626.91;5095473;28;20044;-66
2022/09/23 11:17:08;;;;;;;1.50;1.40;;;;;;;16.10;47.13;96633.41;5095811;28;20452;-67
2022/09/23 11:20:00;;;;;;;1.23;1.13;;;;;;;16.09;44.66;96623.75;5095878;28;20048;-67
2022/09/23 11:22:44;;;;;;;2.22;1.40;;;;;;;16.06;45.59;96634.50;5095696;28;20044;-67
2022/09/23 11:25:29;;;;;;;1.70;1.40;;;;;;;15.99;45.54;96621.69;5095576;28;20456;-67
2022/09/23 11:28:33;;;;;;;1.50;1.40;;;;;;;15.92;47.60;96630.84;5095806;28;20497;-67
2022/09/23 11:31:10;;;;;;;1.58;1.48;;;;;;;15.86;47.24;96626.78;5095616;28;20398;-67
2022/09/23 11:33:51;;;;;;;1.90;1.67;;;;;;;15.81;49.78;96625.34;5095481;28;20113;-66
2022/09/23 11:36:26;;;;;;;2.38;1.77;;;;;;;15.75;49.38;96614.22;5095449;28;20052;-66
2022/09/23 11:38:57;;;;;;;1.73;1.63;;;;;;;15.66;50.82;96620.88;5095610;28;20052;-66
2022/09/23 11:41:28;;;;;;;2.00;1.60;;;;;;;15.71;50.46;96617.97;5095612;28;20105;-67
2022/09/23 11:44:03;;;;;;;1.63;1.52;;;;;;;15.82;52.62;96621.78;5095413;28;20093;-67
2022/09/23 11:46:38;;;;;;;1.80;1.70;;;;;;;16.05;52.90;96631.03;5095350;28;20044;-67
2022/09/23 11:49:14;;;;;;;2.85;1.50;;;;;;;16.29;49.80;96617.31;5095330;28;20044;-66
2022/09/23 11:51:52;;;;;;;1.52;1.42;;;;;;;16.42;47.55;96601.56;5095296;28;20413;-66
2022/09/23 11:54:23;;;;;;;3.85;1.30;;;;;;;16.62;47.06;96602.16;5095262;28;20048;-67
2022/09/23 11:56:54;;;;;;;1.90;1.20;;;;;;;16.89;46.92;96588.19;5095113;28;20044;-66
2022/09/23 11:59:31;;;;;;;1.48;1.38;;;;;;;17.39;46.29;96585.91;5095003;28;20084;-66
2022/09/23 12:02:03;;;;;;;1.27;1.17;;;;;;;17.45;41.80;96570.59;5094972;28;20052;-66
2022/09/23 12:04:36;;;;;;;3.45;1.35;;;;;;;17.23;42.37;96572.84;5094979;28;20044;-66
2022/09/23 12:07:14;;;;;;;1.50;1.38;;;;;;;17.15;40.02;96568.03;5094800;28;20048;-66